Allen's Hourly Summary for Friday, May 11, 2018
Hour Temp
(f)
RH
(%)
Solar Rad.
(MJ/m2)
Rainfall
(in)
Wind
(mph)
5/11/2018 12:00 AM 72 57 0 0 3.36
5/11/2018 1:00 AM 72 58 0 0 4.38
5/11/2018 2:00 AM 71 62 0 0 4.19
5/11/2018 3:00 AM 70 66 0 0 4.42
5/11/2018 4:00 AM 69 70 0 0 4.43
5/11/2018 5:00 AM 68 75 0 0 4.25
5/11/2018 6:00 AM 67 80 0 0 4.08
5/11/2018 7:00 AM 66 83 0.03 0 3.24
5/11/2018 8:00 AM 68 79 0.42 0 3.67
5/11/2018 9:00 AM 70 74 0.63 0 4.21
5/11/2018 10:00 AM 72 63 1.69 0 5.3
5/11/2018 11:00 AM 76 55 2.8 0 5.66
5/11/2018 12:00 PM 79 51 3.12 0 5.76
5/11/2018 1:00 PM 81 46 3.32 0 5.34
5/11/2018 2:00 PM 82 45 2.71 0 4.55
5/11/2018 3:00 PM 84 42 2.93 0 5.16
5/11/2018 4:00 PM 84 41 2.84 0 5.71
5/11/2018 5:00 PM 85 40 2.16 0 5.83
5/11/2018 6:00 PM 84 40 1.66 0 6.35
5/11/2018 7:00 PM 83 41 0.75 0 5.67
5/11/2018 8:00 PM 81 43 0.11 0 5.55
5/11/2018 9:00 PM 79 49 0.01 0 4.36
5/11/2018 10:00 PM 77 51 0 0 4.13
5/11/2018 11:00 PM 75 54 0 0 3.95
Data Summary 75 56 25.18 0.00 4.73